createdAt,value
2023-03-26T00:02:08.251Z,7.42
2023-03-26T00:04:36.318Z,7.41
2023-03-26T00:07:10.381Z,7.44
2023-03-26T00:09:39.026Z,7.42
2023-03-26T00:12:07.627Z,7.42
2023-03-26T00:14:35.701Z,7.42
2023-03-26T00:17:04.329Z,7.44
2023-03-26T00:19:35.029Z,7.40
2023-03-26T00:22:04.082Z,7.42
2023-03-26T00:24:32.501Z,7.41
2023-03-26T00:27:01.110Z,7.40
2023-03-26T00:29:29.108Z,7.41
2023-03-26T00:31:58.673Z,7.41
2023-03-26T00:34:27.019Z,7.41
2023-03-26T00:37:02.534Z,7.42
2023-03-26T00:39:33.762Z,7.45
2023-03-26T00:42:06.773Z,7.47
2023-03-26T00:44:35.472Z,7.48
2023-03-26T00:47:03.950Z,7.47
2023-03-26T00:49:32.538Z,7.47
2023-03-26T00:52:03.368Z,7.44
2023-03-26T00:54:31.994Z,7.44
2023-03-26T00:57:00.142Z,7.41
2023-03-26T00:59:30.353Z,7.36
2023-03-26T01:02:00.301Z,7.36
2023-03-26T01:04:31.942Z,7.30
2023-03-26T01:07:04.270Z,7.31
2023-03-26T01:09:37.652Z,7.28
2023-03-26T01:12:08.379Z,7.27
2023-03-26T01:14:37.490Z,7.24
2023-03-26T01:17:08.029Z,7.20
2023-03-26T01:19:41.840Z,7.18
2023-03-26T01:22:15.574Z,7.13
2023-03-26T01:24:46.270Z,7.11
2023-03-26T01:27:25.932Z,7.13
2023-03-26T01:29:55.733Z,7.05
2023-03-26T01:32:37.709Z,7.07
2023-03-26T01:35:15.522Z,7.03
2023-03-26T01:37:54.197Z,7.03
2023-03-26T01:40:27.972Z,7.05
2023-03-26T01:43:00.193Z,7.05
2023-03-26T01:45:31.881Z,7.05
2023-03-26T01:48:01.753Z,7.08
2023-03-26T01:50:29.970Z,7.07
2023-03-26T01:52:59.005Z,7.04
2023-03-26T01:55:34.169Z,7.04
2023-03-26T01:58:09.598Z,7.05
2023-03-26T02:00:42.146Z,7.10
2023-03-26T02:03:21.189Z,7.08
2023-03-26T02:05:54.550Z,7.13
2023-03-26T02:08:25.390Z,7.11
2023-03-26T02:10:59.764Z,7.10
2023-03-26T02:13:28.400Z,7.08
2023-03-26T02:15:58.816Z,7.05
2023-03-26T02:18:36.222Z,7.04
2023-03-26T02:21:06.903Z,7.03
2023-03-26T02:23:36.214Z,7.01
2023-03-26T02:26:09.782Z,6.97
2023-03-26T02:28:38.700Z,6.97
2023-03-26T02:31:09.792Z,6.97
2023-03-26T02:33:38.431Z,6.96
2023-03-26T02:36:09.944Z,6.94
2023-03-26T02:38:38.236Z,6.93
2023-03-26T02:41:08.367Z,6.94
2023-03-26T02:43:36.410Z,6.89
2023-03-26T02:46:04.912Z,6.89
2023-03-26T02:48:35.008Z,6.87
2023-03-26T02:51:03.337Z,6.86
2023-03-26T02:53:32.591Z,6.87
2023-03-26T02:56:01.556Z,6.87
2023-03-26T02:58:31.392Z,6.84
2023-03-26T03:00:59.495Z,6.87
2023-03-26T03:03:29.960Z,6.87
2023-03-26T03:05:58.556Z,6.87
2023-03-26T03:08:28.237Z,6.89
2023-03-26T03:10:57.695Z,6.90
2023-03-26T03:13:26.017Z,6.92
2023-03-26T03:15:56.178Z,6.87
2023-03-26T03:18:24.482Z,6.92
2023-03-26T03:20:53.837Z,6.93
2023-03-26T03:23:22.565Z,6.89
2023-03-26T03:25:52.702Z,6.87
2023-03-26T03:28:21.561Z,6.89
2023-03-26T03:30:53.076Z,6.89
2023-03-26T03:33:23.994Z,6.84
2023-03-26T03:35:53.184Z,6.83
2023-03-26T03:38:21.492Z,6.79
2023-03-26T03:40:49.547Z,6.79
2023-03-26T03:43:17.758Z,6.80
2023-03-26T03:45:47.643Z,6.80
2023-03-26T03:48:18.377Z,6.76
2023-03-26T03:50:47.982Z,6.76
2023-03-26T03:53:16.554Z,6.75
2023-03-26T03:55:53.407Z,6.77
2023-03-26T03:58:22.278Z,6.76
2023-03-26T04:00:50.782Z,6.73
2023-03-26T04:03:33.506Z,6.73
2023-03-26T04:06:07.220Z,6.71
2023-03-26T04:08:35.658Z,6.65
2023-03-26T04:11:05.729Z,6.63
2023-03-26T04:13:34.019Z,6.63
2023-03-26T04:16:02.267Z,6.63
2023-03-26T04:18:32.406Z,6.62
2023-03-26T04:21:02.927Z,6.66
2023-03-26T04:23:32.855Z,6.66
2023-03-26T04:26:04.348Z,6.66
2023-03-26T04:28:35.663Z,6.68
2023-03-26T04:31:04.843Z,6.66
2023-03-26T04:33:37.035Z,6.68
2023-03-26T04:36:05.930Z,6.71
2023-03-26T04:38:42.565Z,6.71
2023-03-26T04:41:13.096Z,6.72
2023-03-26T04:43:47.330Z,6.73
2023-03-26T04:46:20.779Z,6.75
2023-03-26T04:48:49.091Z,6.73
2023-03-26T04:51:19.272Z,6.76
2023-03-26T04:53:53.261Z,6.77
2023-03-26T04:56:31.252Z,6.79
2023-03-26T04:59:01.286Z,6.75
2023-03-26T05:01:30.902Z,6.77
2023-03-26T05:03:59.612Z,6.76
2023-03-26T05:06:28.753Z,6.77
2023-03-26T05:08:58.373Z,6.79
2023-03-26T05:11:26.839Z,6.79
2023-03-26T05:13:57.074Z,6.76
2023-03-26T05:16:25.898Z,6.77
2023-03-26T05:18:54.179Z,6.80
2023-03-26T05:21:24.405Z,6.80
2023-03-26T05:23:52.767Z,6.79
2023-03-26T05:26:22.745Z,6.83
2023-03-26T05:28:52.747Z,6.84
2023-03-26T05:31:23.837Z,6.90
2023-03-26T05:33:52.585Z,6.97
2023-03-26T05:36:20.860Z,7.05
2023-03-26T05:38:49.912Z,7.10
2023-03-26T05:41:18.028Z,7.11
2023-03-26T05:43:48.183Z,7.13
2023-03-26T05:46:16.745Z,7.14
2023-03-26T05:48:45.043Z,7.15
2023-03-26T05:51:15.660Z,7.17
2023-03-26T05:53:44.474Z,7.20
2023-03-26T05:56:13.177Z,7.24
2023-03-26T05:58:42.055Z,7.24
2023-03-26T06:01:17.126Z,7.24
2023-03-26T06:03:46.812Z,7.20
2023-03-26T06:06:17.029Z,7.21
2023-03-26T06:08:46.846Z,7.20
2023-03-26T06:11:16.431Z,7.18
2023-03-26T06:13:46.214Z,7.17
2023-03-26T06:16:27.168Z,7.14
2023-03-26T06:18:58.334Z,7.15
2023-03-26T06:21:27.685Z,7.15
2023-03-26T06:23:55.918Z,7.13
2023-03-26T06:26:24.676Z,7.08
2023-03-26T06:28:53.521Z,7.11
2023-03-26T06:31:23.115Z,7.13
2023-03-26T06:33:52.054Z,7.15
2023-03-26T06:36:20.134Z,7.21
2023-03-26T06:38:50.677Z,7.24
2023-03-26T06:41:21.104Z,7.28
2023-03-26T06:43:49.543Z,7.35
2023-03-26T06:46:17.955Z,7.42
2023-03-26T06:48:49.450Z,7.48
2023-03-26T06:51:17.891Z,7.56
2023-03-26T06:53:46.182Z,7.71
2023-03-26T06:56:14.232Z,7.78
2023-03-26T06:58:42.411Z,7.83
2023-03-26T07:01:10.891Z,7.89
2023-03-26T07:03:39.119Z,7.99
2023-03-26T07:06:11.128Z,8.09
2023-03-26T07:08:39.109Z,8.14
2023-03-26T07:11:07.733Z,8.29
2023-03-26T07:13:36.965Z,8.47
2023-03-26T07:16:06.067Z,8.67
2023-03-26T07:18:34.087Z,8.79
2023-03-26T07:21:02.698Z,8.86
2023-03-26T07:23:32.648Z,8.88
2023-03-26T07:26:01.995Z,8.85
2023-03-26T07:28:36.792Z,8.89
2023-03-26T07:31:15.609Z,8.83
2023-03-26T07:33:47.844Z,8.85
2023-03-26T07:36:22.371Z,8.79
2023-03-26T07:39:06.374Z,8.72
2023-03-26T07:41:42.141Z,8.58
2023-03-26T07:44:24.835Z,8.54
2023-03-26T07:46:54.725Z,8.57
2023-03-26T07:49:23.489Z,8.62
2023-03-26T07:51:52.635Z,8.62
2023-03-26T07:54:22.781Z,8.68
2023-03-26T07:56:57.956Z,8.69
2023-03-26T07:59:31.323Z,8.75
2023-03-26T08:02:19.672Z,8.82
2023-03-26T08:05:00.329Z,8.93
2023-03-26T08:07:36.409Z,9.05
2023-03-26T08:10:11.557Z,9.19
2023-03-26T08:12:45.408Z,9.29
2023-03-26T08:15:17.198Z,9.39
2023-03-26T08:17:50.281Z,9.47
2023-03-26T08:20:31.030Z,9.57
2023-03-26T08:23:05.899Z,9.61
2023-03-26T08:25:38.076Z,9.74
2023-03-26T08:28:10.688Z,9.87
2023-03-26T08:30:39.280Z,9.95
2023-03-26T08:33:14.500Z,10.01
2023-03-26T08:35:43.144Z,10.02
2023-03-26T08:38:11.712Z,10.10
2023-03-26T08:44:03.070Z,10.08
2023-03-26T08:46:47.244Z,10.08
2023-03-26T08:49:46.254Z,10.16
2023-03-26T08:52:38.642Z,10.03
2023-03-26T08:55:31.408Z,10.05
2023-03-26T08:58:05.499Z,10.09
2023-03-26T09:00:53.203Z,10.16
2023-03-26T09:03:41.388Z,10.29
2023-03-26T09:06:42.923Z,10.45
2023-03-26T09:09:37.345Z,10.53
2023-03-26T09:12:21.941Z,10.61
2023-03-26T09:15:18.602Z,10.55
2023-03-26T09:18:24.368Z,10.50
2023-03-26T09:21:28.167Z,10.46
2023-03-26T09:24:27.815Z,10.52
2023-03-26T09:27:01.968Z,10.68
2023-03-26T09:29:47.273Z,10.87
2023-03-26T09:32:31.237Z,11.15
2023-03-26T09:35:13.234Z,11.35
2023-03-26T09:37:56.805Z,11.42
2023-03-26T09:40:33.262Z,11.39
2023-03-26T09:43:17.906Z,11.29
2023-03-26T09:45:53.730Z,11.21
2023-03-26T09:48:30.809Z,11.18
2023-03-26T09:51:11.106Z,11.24
2023-03-26T09:53:53.716Z,11.36
2023-03-26T09:56:37.845Z,11.40
2023-03-26T09:59:21.056Z,11.42
2023-03-26T10:01:56.273Z,11.46
2023-03-26T10:04:40.785Z,11.57
2023-03-26T10:07:25.833Z,11.45
2023-03-26T10:09:58.687Z,11.40
2023-03-26T10:12:33.518Z,11.50
2023-03-26T10:15:19.353Z,11.55
2023-03-26T10:17:57.866Z,11.53
2023-03-26T10:20:46.359Z,11.64
2023-03-26T10:23:33.385Z,11.80
2023-03-26T10:26:09.784Z,11.86
2023-03-26T10:28:49.641Z,11.93
2023-03-26T10:31:44.834Z,11.84
2023-03-26T10:34:29.012Z,11.76
2023-03-26T10:37:05.358Z,11.76
2023-03-26T10:39:45.453Z,11.66
2023-03-26T10:42:29.226Z,11.66
2023-03-26T10:45:12.208Z,11.63
2023-03-26T10:47:56.058Z,11.71
2023-03-26T10:50:37.042Z,11.70
2023-03-26T10:53:15.167Z,11.66
2023-03-26T10:55:46.903Z,11.62
2023-03-26T10:58:19.982Z,11.56
2023-03-26T11:00:52.130Z,11.55
2023-03-26T11:03:36.326Z,11.46
2023-03-26T11:06:12.087Z,11.43
2023-03-26T11:08:44.352Z,11.52
2023-03-26T11:11:20.125Z,11.74
2023-03-26T11:13:57.051Z,12.00
2023-03-26T11:16:32.737Z,12.08
2023-03-26T11:19:05.111Z,12.10
2023-03-26T11:21:35.849Z,12.12
2023-03-26T11:24:13.730Z,12.20
2023-03-26T11:26:49.092Z,12.20
2023-03-26T11:29:32.767Z,12.25
2023-03-26T11:32:05.701Z,12.38
2023-03-26T11:34:37.069Z,12.51
2023-03-26T11:37:08.005Z,12.58
2023-03-26T11:39:42.922Z,12.55
2023-03-26T11:42:14.289Z,12.53
2023-03-26T11:44:45.557Z,12.55
2023-03-26T11:47:16.902Z,12.58
2023-03-26T11:49:45.895Z,12.59
2023-03-26T11:52:15.765Z,12.61
2023-03-26T11:54:50.645Z,12.63
2023-03-26T11:57:22.296Z,12.76
2023-03-26T11:59:58.110Z,12.82
2023-03-26T12:02:32.661Z,12.91
2023-03-26T12:05:18.876Z,13.07
2023-03-26T12:07:52.614Z,13.21
2023-03-26T12:10:31.365Z,13.32
2023-03-26T12:13:01.205Z,13.48
2023-03-26T12:15:32.093Z,13.81
2023-03-26T12:18:01.638Z,14.09
2023-03-26T12:20:38.949Z,14.38
2023-03-26T12:23:09.486Z,14.54
2023-03-26T12:25:44.064Z,14.61
2023-03-26T12:28:19.175Z,14.47
2023-03-26T12:31:00.890Z,14.24
2023-03-26T12:33:34.426Z,14.13
2023-03-26T12:36:20.530Z,14.05
2023-03-26T12:39:16.176Z,13.95
2023-03-26T12:44:42.570Z,13.68
2023-03-26T12:44:55.726Z,13.49
2023-03-26T12:47:56.642Z,13.26
2023-03-26T12:50:14.926Z,13.16
2023-03-26T12:52:46.808Z,13.13
2023-03-26T12:55:24.745Z,13.08
2023-03-26T12:57:57.893Z,13.06
2023-03-26T13:00:38.031Z,13.14
2023-03-26T13:03:29.484Z,13.28
2023-03-26T13:06:23.999Z,13.38
2023-03-26T13:09:12.172Z,13.41
2023-03-26T13:11:47.745Z,13.35
2023-03-26T13:14:44.857Z,13.28
2023-03-26T13:17:22.733Z,13.28
2023-03-26T13:19:58.124Z,13.26
2023-03-26T13:22:32.361Z,13.28
2023-03-26T13:25:06.841Z,13.19
2023-03-26T13:27:41.881Z,13.13
2023-03-26T13:30:19.955Z,13.16
2023-03-26T13:32:58.696Z,13.13
2023-03-26T13:35:34.290Z,13.11
2023-03-26T13:38:10.525Z,13.04
2023-03-26T13:40:46.802Z,12.96
2023-03-26T13:43:30.974Z,12.75
2023-03-26T13:46:03.894Z,12.68
2023-03-26T13:48:34.672Z,12.68
2023-03-26T13:51:10.624Z,12.56
2023-03-26T13:53:43.257Z,12.53
2023-03-26T13:56:15.467Z,12.59
2023-03-26T13:58:46.198Z,12.61
2023-03-26T14:01:17.841Z,12.62
2023-03-26T14:03:53.307Z,12.58
2023-03-26T14:06:46.840Z,12.52
2023-03-26T14:09:19.204Z,12.44
2023-03-26T14:11:50.528Z,12.41
2023-03-26T14:14:20.900Z,12.35
2023-03-26T14:16:52.759Z,12.28
2023-03-26T14:20:01.353Z,12.22
2023-03-26T14:22:40.567Z,12.14
2023-03-26T14:25:18.761Z,12.08
2023-03-26T14:27:57.263Z,12.01
2023-03-26T14:30:57.610Z,11.94
2023-03-26T14:33:48.520Z,11.86
2023-03-26T14:36:23.806Z,11.80
2023-03-26T14:39:15.801Z,11.71
2023-03-26T14:41:48.707Z,11.67
2023-03-26T14:44:48.543Z,11.64
2023-03-26T14:47:19.413Z,11.60
2023-03-26T14:50:04.161Z,11.56
2023-03-26T14:52:41.775Z,11.57
2023-03-26T14:55:23.242Z,11.55
2023-03-26T14:58:07.571Z,11.55
2023-03-26T15:01:03.976Z,11.57
2023-03-26T15:04:04.844Z,11.60
2023-03-26T15:07:01.735Z,11.60
2023-03-26T15:10:06.017Z,11.40
2023-03-26T15:12:45.786Z,11.32
2023-03-26T15:15:35.439Z,11.21
2023-03-26T15:18:33.815Z,11.15
2023-03-26T15:21:31.713Z,11.07
2023-03-26T15:24:24.919Z,11.14
2023-03-26T15:27:24.618Z,11.19
2023-03-26T15:30:27.914Z,11.25
2023-03-26T15:33:22.700Z,11.24
2023-03-26T15:36:13.941Z,11.21
2023-03-26T15:38:55.644Z,11.15
2023-03-26T15:41:27.871Z,11.14
2023-03-26T15:44:24.082Z,11.12
2023-03-26T15:46:58.490Z,11.07
2023-03-26T15:49:34.705Z,11.02
2023-03-26T15:52:09.557Z,10.99
2023-03-26T15:54:41.014Z,10.95
2023-03-26T15:57:18.624Z,10.94
2023-03-26T16:00:00.628Z,10.88
2023-03-26T16:02:37.360Z,10.88
2023-03-26T16:05:26.494Z,10.73
2023-03-26T16:08:04.457Z,10.59
2023-03-26T16:10:41.086Z,10.55
2023-03-26T16:13:38.611Z,10.46
2023-03-26T16:16:23.820Z,10.42
2023-03-26T16:18:58.374Z,10.30
2023-03-26T16:21:38.275Z,10.19
2023-03-26T16:24:21.220Z,10.06
2023-03-26T16:27:01.339Z,9.92
2023-03-26T16:29:34.313Z,9.85
2023-03-26T16:32:18.476Z,9.74
2023-03-26T16:34:52.903Z,9.65
2023-03-26T16:37:43.410Z,9.51
2023-03-26T16:40:35.347Z,9.39
2023-03-26T16:43:11.835Z,9.34
2023-03-26T16:45:45.331Z,9.16
2023-03-26T16:48:24.146Z,9.06
2023-03-26T16:50:57.942Z,9.02
2023-03-26T16:53:38.589Z,8.90
2023-03-26T16:56:14.682Z,8.81
2023-03-26T16:58:53.698Z,8.73
2023-03-26T17:01:28.718Z,8.67
2023-03-26T17:03:59.990Z,8.58
2023-03-26T17:07:14.091Z,8.54
2023-03-26T17:09:54.471Z,8.47
2023-03-26T17:12:32.139Z,8.38
2023-03-26T17:15:08.341Z,8.31
2023-03-26T17:17:45.862Z,8.23
2023-03-26T17:20:22.848Z,8.17
2023-03-26T17:22:54.258Z,8.16
2023-03-26T17:25:28.747Z,8.16
2023-03-26T17:28:08.684Z,8.09
2023-03-26T17:30:51.041Z,8.03
2023-03-26T17:33:24.206Z,8.02
2023-03-26T17:35:54.206Z,7.99
2023-03-26T17:38:55.339Z,7.96
2023-03-26T17:41:57.121Z,7.94
2023-03-26T17:44:44.825Z,7.89
2023-03-26T17:47:25.154Z,7.85
2023-03-26T17:49:59.100Z,7.79
2023-03-26T17:52:34.955Z,7.72
2023-03-26T17:55:06.057Z,7.68
2023-03-26T17:57:42.014Z,7.61
2023-03-26T18:00:19.484Z,7.58
2023-03-26T18:02:54.043Z,7.52
2023-03-26T18:05:23.379Z,7.47
2023-03-26T18:08:13.491Z,7.41
2023-03-26T18:11:00.514Z,7.36
2023-03-26T18:13:51.971Z,7.35
2023-03-26T18:16:25.770Z,7.34
2023-03-26T18:18:57.107Z,7.28
2023-03-26T18:21:33.465Z,7.24
2023-03-26T18:24:05.036Z,7.20
2023-03-26T18:26:35.945Z,7.17
2023-03-26T18:29:16.681Z,7.11
2023-03-26T18:31:48.431Z,7.05
2023-03-26T18:34:20.293Z,7.05
2023-03-26T18:37:00.961Z,7.04
2023-03-26T18:39:29.053Z,7.01
2023-03-26T18:41:59.623Z,6.99
2023-03-26T18:44:28.552Z,6.99
2023-03-26T18:47:00.126Z,6.99
2023-03-26T18:49:30.008Z,6.97
2023-03-26T18:51:58.115Z,7.01
2023-03-26T18:54:30.430Z,7.07
2023-03-26T18:57:00.484Z,7.13
2023-03-26T18:59:32.178Z,7.18
2023-03-26T19:02:05.961Z,7.23
2023-03-26T19:04:39.502Z,7.25
2023-03-26T19:07:10.799Z,7.28
2023-03-26T19:09:40.248Z,7.31
2023-03-26T19:12:16.624Z,7.31
2023-03-26T19:14:58.699Z,7.31
2023-03-26T19:17:31.681Z,7.35
2023-03-26T19:19:59.859Z,7.34
2023-03-26T19:22:30.046Z,7.36
2023-03-26T19:25:00.635Z,7.35
2023-03-26T19:27:29.047Z,7.35
2023-03-26T19:29:59.458Z,7.34
2023-03-26T19:32:34.780Z,7.31
2023-03-26T19:35:04.442Z,7.28
2023-03-26T19:37:33.409Z,7.28
2023-03-26T19:40:07.090Z,7.28
2023-03-26T19:42:43.131Z,7.23
2023-03-26T19:45:18.224Z,7.20
2023-03-26T19:48:00.170Z,7.18
2023-03-26T19:50:39.334Z,7.14
2023-03-26T19:53:17.940Z,7.15
2023-03-26T19:55:59.677Z,7.11
2023-03-26T19:58:28.402Z,7.10
2023-03-26T20:00:56.978Z,7.08
2023-03-26T20:03:29.798Z,7.07
2023-03-26T20:05:58.758Z,7.04
2023-03-26T20:08:28.084Z,7.08
2023-03-26T20:11:00.016Z,7.04
2023-03-26T20:13:31.378Z,7.00
2023-03-26T20:16:05.737Z,7.00
2023-03-26T20:18:40.288Z,6.94
2023-03-26T20:21:14.585Z,6.92
2023-03-26T20:23:43.229Z,6.87
2023-03-26T20:26:13.500Z,6.80
2023-03-26T20:28:48.178Z,6.76
2023-03-26T20:31:19.803Z,6.69
2023-03-26T20:33:51.885Z,6.57
2023-03-26T20:36:33.345Z,6.53
2023-03-26T20:39:06.203Z,6.42
2023-03-26T20:41:35.922Z,6.34
2023-03-26T20:44:05.811Z,6.24
2023-03-26T20:46:34.234Z,6.13
2023-03-26T20:49:07.879Z,6.04
2023-03-26T20:51:38.142Z,5.98
2023-03-26T20:54:07.822Z,5.90
2023-03-26T20:56:38.069Z,5.84
2023-03-26T20:59:11.355Z,5.78
2023-03-26T21:01:41.508Z,5.71
2023-03-26T21:04:19.219Z,5.69
2023-03-26T21:06:50.802Z,5.63
2023-03-26T21:09:24.175Z,5.60
2023-03-26T21:12:03.386Z,5.56
2023-03-26T21:14:39.062Z,5.53
2023-03-26T21:17:10.127Z,5.50
2023-03-26T21:19:40.410Z,5.46
2023-03-26T21:22:17.056Z,5.46
2023-03-26T21:24:51.129Z,5.43
2023-03-26T21:27:26.037Z,5.42
2023-03-26T21:29:55.145Z,5.42
2023-03-26T21:32:24.242Z,5.43
2023-03-26T21:34:59.133Z,5.42
2023-03-26T21:37:29.571Z,5.40
2023-03-26T21:39:59.802Z,5.39
2023-03-26T21:42:30.250Z,5.36
2023-03-26T21:44:59.726Z,5.38
2023-03-26T21:47:29.140Z,5.36
2023-03-26T21:50:00.205Z,5.32
2023-03-26T21:52:30.727Z,5.28
2023-03-26T21:55:01.402Z,5.22
2023-03-26T21:57:47.738Z,5.16
2023-03-26T22:00:30.616Z,5.08
2023-03-26T22:03:12.504Z,5.01
2023-03-26T22:05:45.609Z,4.97
2023-03-26T22:08:28.864Z,4.88
2023-03-26T22:10:57.225Z,4.81
2023-03-26T22:13:28.283Z,4.84
2023-03-26T22:15:56.852Z,4.81
2023-03-26T22:18:26.053Z,4.78
2023-03-26T22:20:55.984Z,4.77
2023-03-26T22:23:24.820Z,4.74
2023-03-26T22:25:57.390Z,4.73
2023-03-26T22:28:25.437Z,4.70
2023-03-26T22:30:53.891Z,4.68
2023-03-26T22:33:22.474Z,4.68
2023-03-26T22:35:50.687Z,4.67
2023-03-26T22:38:21.444Z,4.64
2023-03-26T22:40:55.876Z,4.60
2023-03-26T22:43:24.930Z,4.57
2023-03-26T22:45:55.024Z,4.57
2023-03-26T22:48:24.354Z,4.53
2023-03-26T22:51:00.327Z,4.50
2023-03-26T22:53:31.352Z,4.52
2023-03-26T22:55:59.773Z,4.50
2023-03-26T22:58:30.823Z,4.47
2023-03-26T23:01:03.416Z,4.43
2023-03-26T23:03:35.287Z,4.43
2023-03-26T23:06:04.941Z,4.40
2023-03-26T23:08:35.388Z,4.36
2023-03-26T23:11:03.960Z,4.35
2023-03-26T23:13:32.038Z,4.32
2023-03-26T23:16:03.471Z,4.29
2023-03-26T23:18:31.595Z,4.28
2023-03-26T23:21:00.549Z,4.22
2023-03-26T23:23:30.971Z,4.20
2023-03-26T23:26:01.901Z,4.18
2023-03-26T23:28:32.141Z,4.13
2023-03-26T23:31:05.136Z,4.10
2023-03-26T23:33:35.582Z,4.09
2023-03-26T23:36:08.774Z,4.05
2023-03-26T23:38:44.005Z,3.99
2023-03-26T23:41:15.280Z,3.94
2023-03-26T23:43:53.737Z,3.89
2023-03-26T23:46:23.499Z,3.82
2023-03-26T23:48:52.358Z,3.74
2023-03-26T23:51:24.149Z,3.67
2023-03-26T23:53:54.498Z,3.59
2023-03-26T23:56:24.001Z,3.50
2023-03-26T23:58:54.029Z,3.46
